sensor_id;sensor_type;location;lat;lon;timestamp;P1;durP1;ratioP1;P2;durP2;ratioP2
42590;SDS011;28218;53.342;-6.216;2022-07-12T00:01:00;1.48;;;1.42;;
42590;SDS011;28218;53.342;-6.216;2022-07-12T00:03:29;3.33;;;1.40;;
42590;SDS011;28218;53.342;-6.216;2022-07-12T00:05:57;3.55;;;1.40;;
42590;SDS011;28218;53.342;-6.216;2022-07-12T00:08:25;2.15;;;1.60;;
42590;SDS011;28218;53.342;-6.216;2022-07-12T00:10:54;5.28;;;1.30;;
42590;SDS011;28218;53.342;-6.216;2022-07-12T00:13:22;2.83;;;1.45;;
42590;SDS011;28218;53.342;-6.216;2022-07-12T00:15:50;4.13;;;1.38;;
42590;SDS011;28218;53.342;-6.216;2022-07-12T00:18:20;2.50;;;1.30;;
42590;SDS011;28218;53.342;-6.216;2022-07-12T00:20:49;1.67;;;1.48;;
42590;SDS011;28218;53.342;-6.216;2022-07-12T00:23:17;1.90;;;1.27;;
42590;SDS011;28218;53.342;-6.216;2022-07-12T00:25:45;1.15;;;1.15;;
42590;SDS011;28218;53.342;-6.216;2022-07-12T00:28:13;3.03;;;1.50;;
42590;SDS011;28218;53.342;-6.216;2022-07-12T00:30:42;1.65;;;1.30;;
42590;SDS011;28218;53.342;-6.216;2022-07-12T00:33:10;4.40;;;1.40;;
42590;SDS011;28218;53.342;-6.216;2022-07-12T00:35:40;2.33;;;1.55;;
42590;SDS011;28218;53.342;-6.216;2022-07-12T00:38:08;1.80;;;1.30;;
42590;SDS011;28218;53.342;-6.216;2022-07-12T00:40:36;1.48;;;1.25;;
42590;SDS011;28218;53.342;-6.216;2022-07-12T00:43:04;1.35;;;1.25;;
42590;SDS011;28218;53.342;-6.216;2022-07-12T00:45:33;2.47;;;1.35;;
42590;SDS011;28218;53.342;-6.216;2022-07-12T00:48:01;5.95;;;1.77;;
42590;SDS011;28218;53.342;-6.216;2022-07-12T00:50:30;2.80;;;1.80;;
42590;SDS011;28218;53.342;-6.216;2022-07-12T00:53:00;1.63;;;1.52;;
42590;SDS011;28218;53.342;-6.216;2022-07-12T00:55:28;1.92;;;1.40;;
42590;SDS011;28218;53.342;-6.216;2022-07-12T00:57:56;2.50;;;1.60;;
42590;SDS011;28218;53.342;-6.216;2022-07-12T01:00:25;2.25;;;1.65;;
42590;SDS011;28218;53.342;-6.216;2022-07-12T01:02:55;4.05;;;1.88;;
42590;SDS011;28218;53.342;-6.216;2022-07-12T01:05:25;2.15;;;1.40;;
42590;SDS011;28218;53.342;-6.216;2022-07-12T01:07:55;3.72;;;1.85;;
42590;SDS011;28218;53.342;-6.216;2022-07-12T01:10:26;3.45;;;1.48;;
42590;SDS011;28218;53.342;-6.216;2022-07-12T01:15:25;1.42;;;1.20;;
42590;SDS011;28218;53.342;-6.216;2022-07-12T01:17:56;2.20;;;1.60;;
42590;SDS011;28218;53.342;-6.216;2022-07-12T01:20:26;3.65;;;1.63;;
42590;SDS011;28218;53.342;-6.216;2022-07-12T01:22:57;1.80;;;1.58;;
42590;SDS011;28218;53.342;-6.216;2022-07-12T01:25:26;2.33;;;1.45;;
42590;SDS011;28218;53.342;-6.216;2022-07-12T01:27:55;2.03;;;1.40;;
42590;SDS011;28218;53.342;-6.216;2022-07-12T01:30:24;1.73;;;1.25;;
42590;SDS011;28218;53.342;-6.216;2022-07-12T01:32:53;4.35;;;1.55;;
42590;SDS011;28218;53.342;-6.216;2022-07-12T01:35:22;1.83;;;1.33;;
42590;SDS011;28218;53.342;-6.216;2022-07-12T01:37:50;1.30;;;1.20;;
42590;SDS011;28218;53.342;-6.216;2022-07-12T01:40:20;2.10;;;1.33;;
42590;SDS011;28218;53.342;-6.216;2022-07-12T01:42:48;6.90;;;1.52;;
42590;SDS011;28218;53.342;-6.216;2022-07-12T01:45:18;5.43;;;1.27;;
42590;SDS011;28218;53.342;-6.216;2022-07-12T01:47:47;7.22;;;1.60;;
42590;SDS011;28218;53.342;-6.216;2022-07-12T01:50:15;5.88;;;1.60;;
42590;SDS011;28218;53.342;-6.216;2022-07-12T01:52:44;2.67;;;1.60;;
42590;SDS011;28218;53.342;-6.216;2022-07-12T01:55:13;3.28;;;1.70;;
42590;SDS011;28218;53.342;-6.216;2022-07-12T01:57:43;2.95;;;1.70;;
42590;SDS011;28218;53.342;-6.216;2022-07-12T02:00:11;4.00;;;2.00;;
42590;SDS011;28218;53.342;-6.216;2022-07-12T02:02:41;2.05;;;1.63;;
42590;SDS011;28218;53.342;-6.216;2022-07-12T02:05:13;2.45;;;1.80;;
42590;SDS011;28218;53.342;-6.216;2022-07-12T02:07:41;2.17;;;1.55;;
42590;SDS011;28218;53.342;-6.216;2022-07-12T02:10:09;3.45;;;1.50;;
42590;SDS011;28218;53.342;-6.216;2022-07-12T02:12:38;5.55;;;1.73;;
42590;SDS011;28218;53.342;-6.216;2022-07-12T02:15:08;2.28;;;1.60;;
42590;SDS011;28218;53.342;-6.216;2022-07-12T02:17:37;2.85;;;1.65;;
42590;SDS011;28218;53.342;-6.216;2022-07-12T02:20:05;4.10;;;2.33;;
42590;SDS011;28218;53.342;-6.216;2022-07-12T02:22:37;5.15;;;1.83;;
42590;SDS011;28218;53.342;-6.216;2022-07-12T02:25:06;2.47;;;1.52;;
42590;SDS011;28218;53.342;-6.216;2022-07-12T02:27:34;7.68;;;2.00;;
42590;SDS011;28218;53.342;-6.216;2022-07-12T02:30:03;2.20;;;1.88;;
42590;SDS011;28218;53.342;-6.216;2022-07-12T02:32:33;2.58;;;1.92;;
42590;SDS011;28218;53.342;-6.216;2022-07-12T02:35:01;2.85;;;2.10;;
42590;SDS011;28218;53.342;-6.216;2022-07-12T02:37:30;1.80;;;1.70;;
42590;SDS011;28218;53.342;-6.216;2022-07-12T02:39:58;3.95;;;2.17;;
42590;SDS011;28218;53.342;-6.216;2022-07-12T02:42:41;3.60;;;2.03;;
42590;SDS011;28218;53.342;-6.216;2022-07-12T02:45:09;4.80;;;1.92;;
42590;SDS011;28218;53.342;-6.216;2022-07-12T02:47:39;3.47;;;2.08;;
42590;SDS011;28218;53.342;-6.216;2022-07-12T02:50:08;4.97;;;2.17;;
42590;SDS011;28218;53.342;-6.216;2022-07-12T02:52:37;4.95;;;2.13;;
42590;SDS011;28218;53.342;-6.216;2022-07-12T02:55:05;2.92;;;2.53;;
42590;SDS011;28218;53.342;-6.216;2022-07-12T02:57:34;4.55;;;2.42;;
42590;SDS011;28218;53.342;-6.216;2022-07-12T03:00:02;4.32;;;2.28;;
42590;SDS011;28218;53.342;-6.216;2022-07-12T03:02:33;4.22;;;2.40;;
42590;SDS011;28218;53.342;-6.216;2022-07-12T03:05:03;2.42;;;2.05;;
42590;SDS011;28218;53.342;-6.216;2022-07-12T03:07:32;5.28;;;2.38;;
42590;SDS011;28218;53.342;-6.216;2022-07-12T03:10:00;3.33;;;2.38;;
42590;SDS011;28218;53.342;-6.216;2022-07-12T03:12:28;4.45;;;2.50;;
42590;SDS011;28218;53.342;-6.216;2022-07-12T03:14:56;4.93;;;2.42;;
42590;SDS011;28218;53.342;-6.216;2022-07-12T03:17:24;2.70;;;2.47;;
42590;SDS011;28218;53.342;-6.216;2022-07-12T03:19:53;4.78;;;2.35;;
42590;SDS011;28218;53.342;-6.216;2022-07-12T03:22:23;7.88;;;3.45;;
42590;SDS011;28218;53.342;-6.216;2022-07-12T03:24:51;4.93;;;2.58;;
42590;SDS011;28218;53.342;-6.216;2022-07-12T03:27:20;2.80;;;2.22;;
42590;SDS011;28218;53.342;-6.216;2022-07-12T03:29:48;2.97;;;2.67;;
42590;SDS011;28218;53.342;-6.216;2022-07-12T03:32:17;6.28;;;2.58;;
42590;SDS011;28218;53.342;-6.216;2022-07-12T03:34:45;10.43;;;2.78;;
42590;SDS011;28218;53.342;-6.216;2022-07-12T03:37:13;5.47;;;3.35;;
42590;SDS011;28218;53.342;-6.216;2022-07-12T03:39:43;8.60;;;2.40;;
42590;SDS011;28218;53.342;-6.216;2022-07-12T03:42:11;5.95;;;2.67;;
42590;SDS011;28218;53.342;-6.216;2022-07-12T03:44:40;3.22;;;2.88;;
42590;SDS011;28218;53.342;-6.216;2022-07-12T03:47:08;6.30;;;3.00;;
42590;SDS011;28218;53.342;-6.216;2022-07-12T03:49:36;6.60;;;2.53;;
42590;SDS011;28218;53.342;-6.216;2022-07-12T03:52:04;4.00;;;2.75;;
42590;SDS011;28218;53.342;-6.216;2022-07-12T03:54:33;4.38;;;2.80;;
42590;SDS011;28218;53.342;-6.216;2022-07-12T03:57:03;2.58;;;2.38;;
42590;SDS011;28218;53.342;-6.216;2022-07-12T03:59:41;3.53;;;2.70;;
42590;SDS011;28218;53.342;-6.216;2022-07-12T04:02:09;7.50;;;2.38;;
42590;SDS011;28218;53.342;-6.216;2022-07-12T04:04:38;3.10;;;2.45;;
42590;SDS011;28218;53.342;-6.216;2022-07-12T04:07:08;5.13;;;2.30;;
42590;SDS011;28218;53.342;-6.216;2022-07-12T04:09:36;4.70;;;2.72;;
42590;SDS011;28218;53.342;-6.216;2022-07-12T04:12:06;5.57;;;2.90;;
42590;SDS011;28218;53.342;-6.216;2022-07-12T04:14:35;3.30;;;2.47;;
42590;SDS011;28218;53.342;-6.216;2022-07-12T04:17:03;5.15;;;3.05;;
42590;SDS011;28218;53.342;-6.216;2022-07-12T04:19:32;2.97;;;2.67;;
42590;SDS011;28218;53.342;-6.216;2022-07-12T04:22:00;4.35;;;2.97;;
42590;SDS011;28218;53.342;-6.216;2022-07-12T04:24:29;3.38;;;2.63;;
42590;SDS011;28218;53.342;-6.216;2022-07-12T04:26:57;4.30;;;2.78;;
42590;SDS011;28218;53.342;-6.216;2022-07-12T04:29:27;2.78;;;2.55;;
42590;SDS011;28218;53.342;-6.216;2022-07-12T04:31:55;2.92;;;2.65;;
42590;SDS011;28218;53.342;-6.216;2022-07-12T04:34:24;5.80;;;2.72;;
42590;SDS011;28218;53.342;-6.216;2022-07-12T04:36:52;4.65;;;2.55;;
42590;SDS011;28218;53.342;-6.216;2022-07-12T04:39:21;4.55;;;2.35;;
42590;SDS011;28218;53.342;-6.216;2022-07-12T04:41:50;6.10;;;2.42;;
42590;SDS011;28218;53.342;-6.216;2022-07-12T04:44:18;2.53;;;2.33;;
42590;SDS011;28218;53.342;-6.216;2022-07-12T04:46:48;5.78;;;2.95;;
42590;SDS011;28218;53.342;-6.216;2022-07-12T04:49:16;3.47;;;2.60;;
42590;SDS011;28218;53.342;-6.216;2022-07-12T04:51:45;5.35;;;2.78;;
42590;SDS011;28218;53.342;-6.216;2022-07-12T04:54:13;4.13;;;2.95;;
42590;SDS011;28218;53.342;-6.216;2022-07-12T04:56:42;3.92;;;2.45;;
42590;SDS011;28218;53.342;-6.216;2022-07-12T04:59:10;3.55;;;2.97;;
42590;SDS011;28218;53.342;-6.216;2022-07-12T05:01:38;5.28;;;3.25;;
42590;SDS011;28218;53.342;-6.216;2022-07-12T05:04:08;8.68;;;2.90;;
42590;SDS011;28218;53.342;-6.216;2022-07-12T05:06:36;6.03;;;3.38;;
42590;SDS011;28218;53.342;-6.216;2022-07-12T05:09:04;4.20;;;2.80;;
42590;SDS011;28218;53.342;-6.216;2022-07-12T05:11:33;5.82;;;3.03;;
42590;SDS011;28218;53.342;-6.216;2022-07-12T05:14:01;3.70;;;3.40;;
42590;SDS011;28218;53.342;-6.216;2022-07-12T05:16:30;5.38;;;3.33;;
42590;SDS011;28218;53.342;-6.216;2022-07-12T05:18:59;6.18;;;3.20;;
42590;SDS011;28218;53.342;-6.216;2022-07-12T05:21:30;4.97;;;3.30;;
42590;SDS011;28218;53.342;-6.216;2022-07-12T05:24:00;8.35;;;3.40;;
42590;SDS011;28218;53.342;-6.216;2022-07-12T05:26:30;6.10;;;3.30;;
42590;SDS011;28218;53.342;-6.216;2022-07-12T05:28:59;5.80;;;3.50;;
42590;SDS011;28218;53.342;-6.216;2022-07-12T05:31:27;8.82;;;3.22;;
42590;SDS011;28218;53.342;-6.216;2022-07-12T05:33:55;4.75;;;2.80;;
42590;SDS011;28218;53.342;-6.216;2022-07-12T05:36:24;6.18;;;3.88;;
42590;SDS011;28218;53.342;-6.216;2022-07-12T05:38:53;4.78;;;3.10;;
42590;SDS011;28218;53.342;-6.216;2022-07-12T05:41:22;7.18;;;3.58;;
42590;SDS011;28218;53.342;-6.216;2022-07-12T05:43:50;5.65;;;3.30;;
42590;SDS011;28218;53.342;-6.216;2022-07-12T05:46:18;6.25;;;2.75;;
42590;SDS011;28218;53.342;-6.216;2022-07-12T05:48:47;5.63;;;3.10;;
42590;SDS011;28218;53.342;-6.216;2022-07-12T05:51:15;6.28;;;2.83;;
42590;SDS011;28218;53.342;-6.216;2022-07-12T05:54:02;2.47;;;2.25;;
42590;SDS011;28218;53.342;-6.216;2022-07-12T05:56:31;2.85;;;2.47;;
42590;SDS011;28218;53.342;-6.216;2022-07-12T05:58:59;3.05;;;2.58;;
42590;SDS011;28218;53.342;-6.216;2022-07-12T06:01:27;2.67;;;2.42;;
42590;SDS011;28218;53.342;-6.216;2022-07-12T06:03:55;6.00;;;2.80;;
42590;SDS011;28218;53.342;-6.216;2022-07-12T06:06:24;5.70;;;2.25;;
42590;SDS011;28218;53.342;-6.216;2022-07-12T06:08:52;2.42;;;2.05;;
42590;SDS011;28218;53.342;-6.216;2022-07-12T06:11:21;2.88;;;2.58;;
42590;SDS011;28218;53.342;-6.216;2022-07-12T06:13:50;3.80;;;2.35;;
42590;SDS011;28218;53.342;-6.216;2022-07-12T06:16:18;5.57;;;2.90;;
42590;SDS011;28218;53.342;-6.216;2022-07-12T06:18:46;5.78;;;2.63;;
42590;SDS011;28218;53.342;-6.216;2022-07-12T06:21:15;5.55;;;3.03;;
42590;SDS011;28218;53.342;-6.216;2022-07-12T06:23:43;3.50;;;3.20;;
42590;SDS011;28218;53.342;-6.216;2022-07-12T06:26:11;5.80;;;3.08;;
42590;SDS011;28218;53.342;-6.216;2022-07-12T06:28:41;5.25;;;3.17;;
42590;SDS011;28218;53.342;-6.216;2022-07-12T06:31:09;4.88;;;3.42;;
42590;SDS011;28218;53.342;-6.216;2022-07-12T06:33:37;5.97;;;3.50;;
42590;SDS011;28218;53.342;-6.216;2022-07-12T06:36:06;3.30;;;2.72;;
42590;SDS011;28218;53.342;-6.216;2022-07-12T06:38:34;3.30;;;2.85;;
42590;SDS011;28218;53.342;-6.216;2022-07-12T06:41:12;4.55;;;2.90;;
42590;SDS011;28218;53.342;-6.216;2022-07-12T06:43:42;8.38;;;3.17;;
42590;SDS011;28218;53.342;-6.216;2022-07-12T06:46:10;3.35;;;3.05;;
42590;SDS011;28218;53.342;-6.216;2022-07-12T06:48:38;5.88;;;2.90;;
42590;SDS011;28218;53.342;-6.216;2022-07-12T06:51:06;3.45;;;3.15;;
42590;SDS011;28218;53.342;-6.216;2022-07-12T06:53:35;4.13;;;2.85;;
42590;SDS011;28218;53.342;-6.216;2022-07-12T06:56:03;4.20;;;3.80;;
42590;SDS011;28218;53.342;-6.216;2022-07-12T06:58:32;4.35;;;3.33;;
42590;SDS011;28218;53.342;-6.216;2022-07-12T07:01:01;3.90;;;3.20;;
42590;SDS011;28218;53.342;-6.216;2022-07-12T07:03:30;3.22;;;2.85;;
42590;SDS011;28218;53.342;-6.216;2022-07-12T07:05:58;6.72;;;3.17;;
42590;SDS011;28218;53.342;-6.216;2022-07-12T07:08:26;5.65;;;3.25;;
42590;SDS011;28218;53.342;-6.216;2022-07-12T07:10:54;6.22;;;3.15;;
42590;SDS011;28218;53.342;-6.216;2022-07-12T07:13:23;3.15;;;2.75;;
42590;SDS011;28218;53.342;-6.216;2022-07-12T07:15:51;10.48;;;3.15;;
42590;SDS011;28218;53.342;-6.216;2022-07-12T07:18:20;7.53;;;3.13;;
42590;SDS011;28218;53.342;-6.216;2022-07-12T07:20:49;5.18;;;2.90;;
42590;SDS011;28218;53.342;-6.216;2022-07-12T07:23:17;4.35;;;2.70;;
42590;SDS011;28218;53.342;-6.216;2022-07-12T07:25:45;5.40;;;2.70;;
42590;SDS011;28218;53.342;-6.216;2022-07-12T07:28:14;4.53;;;2.70;;
42590;SDS011;28218;53.342;-6.216;2022-07-12T07:30:48;5.68;;;2.80;;
42590;SDS011;28218;53.342;-6.216;2022-07-12T07:33:24;5.03;;;2.90;;
42590;SDS011;28218;53.342;-6.216;2022-07-12T07:35:53;3.15;;;2.75;;
42590;SDS011;28218;53.342;-6.216;2022-07-12T07:38:21;3.20;;;2.90;;
42590;SDS011;28218;53.342;-6.216;2022-07-12T07:40:49;2.88;;;2.63;;
42590;SDS011;28218;53.342;-6.216;2022-07-12T07:43:18;4.00;;;3.05;;
42590;SDS011;28218;53.342;-6.216;2022-07-12T07:45:47;8.80;;;3.00;;
42590;SDS011;28218;53.342;-6.216;2022-07-12T07:48:16;9.68;;;3.58;;
42590;SDS011;28218;53.342;-6.216;2022-07-12T07:50:51;8.02;;;2.80;;
42590;SDS011;28218;53.342;-6.216;2022-07-12T07:53:20;4.30;;;2.70;;
42590;SDS011;28218;53.342;-6.216;2022-07-12T07:55:48;5.07;;;2.88;;
42590;SDS011;28218;53.342;-6.216;2022-07-12T07:58:16;3.22;;;2.88;;
42590;SDS011;28218;53.342;-6.216;2022-07-12T08:00:48;7.15;;;3.13;;
42590;SDS011;28218;53.342;-6.216;2022-07-12T08:03:17;6.38;;;3.10;;
42590;SDS011;28218;53.342;-6.216;2022-07-12T08:05:46;6.90;;;2.60;;
42590;SDS011;28218;53.342;-6.216;2022-07-12T08:08:16;3.83;;;2.65;;
42590;SDS011;28218;53.342;-6.216;2022-07-12T08:10:44;5.32;;;2.47;;
42590;SDS011;28218;53.342;-6.216;2022-07-12T08:13:12;4.75;;;3.67;;
42590;SDS011;28218;53.342;-6.216;2022-07-12T08:15:40;7.78;;;4.07;;
42590;SDS011;28218;53.342;-6.216;2022-07-12T08:18:09;4.43;;;3.03;;
42590;SDS011;28218;53.342;-6.216;2022-07-12T08:20:37;4.10;;;2.78;;
42590;SDS011;28218;53.342;-6.216;2022-07-12T08:23:12;11.02;;;2.88;;
42590;SDS011;28218;53.342;-6.216;2022-07-12T08:25:42;4.40;;;2.35;;
42590;SDS011;28218;53.342;-6.216;2022-07-12T08:28:11;4.05;;;2.60;;
42590;SDS011;28218;53.342;-6.216;2022-07-12T08:30:39;4.45;;;2.25;;
42590;SDS011;28218;53.342;-6.216;2022-07-12T08:33:13;4.05;;;1.95;;
42590;SDS011;28218;53.342;-6.216;2022-07-12T08:35:42;2.90;;;2.15;;
42590;SDS011;28218;53.342;-6.216;2022-07-12T08:38:11;5.13;;;2.20;;
42590;SDS011;28218;53.342;-6.216;2022-07-12T08:40:40;3.08;;;2.30;;
42590;SDS011;28218;53.342;-6.216;2022-07-12T08:43:10;3.28;;;2.38;;
42590;SDS011;28218;53.342;-6.216;2022-07-12T08:45:39;2.67;;;2.30;;
42590;SDS011;28218;53.342;-6.216;2022-07-12T08:48:07;6.88;;;2.20;;
42590;SDS011;28218;53.342;-6.216;2022-07-12T08:50:36;3.67;;;2.05;;
42590;SDS011;28218;53.342;-6.216;2022-07-12T08:53:10;1.80;;;1.70;;
42590;SDS011;28218;53.342;-6.216;2022-07-12T08:55:39;2.42;;;1.67;;
42590;SDS011;28218;53.342;-6.216;2022-07-12T08:58:15;2.75;;;1.77;;
42590;SDS011;28218;53.342;-6.216;2022-07-12T09:00:45;3.45;;;1.70;;
42590;SDS011;28218;53.342;-6.216;2022-07-12T09:03:16;7.03;;;2.20;;
42590;SDS011;28218;53.342;-6.216;2022-07-12T09:05:48;5.03;;;2.42;;
42590;SDS011;28218;53.342;-6.216;2022-07-12T09:08:23;3.00;;;1.70;;
42590;SDS011;28218;53.342;-6.216;2022-07-12T09:10:57;10.20;;;2.58;;
42590;SDS011;28218;53.342;-6.216;2022-07-12T09:16:18;2.75;;;2.00;;
42590;SDS011;28218;53.342;-6.216;2022-07-12T09:18:47;2.38;;;1.95;;
42590;SDS011;28218;53.342;-6.216;2022-07-12T09:21:25;7.25;;;2.25;;
42590;SDS011;28218;53.342;-6.216;2022-07-12T09:23:55;2.28;;;1.85;;
42590;SDS011;28218;53.342;-6.216;2022-07-12T09:26:23;3.28;;;2.00;;
42590;SDS011;28218;53.342;-6.216;2022-07-12T09:28:53;2.42;;;1.75;;
42590;SDS011;28218;53.342;-6.216;2022-07-12T09:31:22;6.72;;;2.17;;
42590;SDS011;28218;53.342;-6.216;2022-07-12T09:34:06;3.60;;;1.90;;
42590;SDS011;28218;53.342;-6.216;2022-07-12T09:36:55;2.00;;;1.90;;
42590;SDS011;28218;53.342;-6.216;2022-07-12T09:39:24;7.40;;;2.42;;
42590;SDS011;28218;53.342;-6.216;2022-07-12T09:41:56;4.65;;;1.85;;
42590;SDS011;28218;53.342;-6.216;2022-07-12T09:44:26;5.05;;;2.22;;
42590;SDS011;28218;53.342;-6.216;2022-07-12T09:46:57;8.70;;;2.72;;
42590;SDS011;28218;53.342;-6.216;2022-07-12T09:49:27;6.95;;;1.95;;
42590;SDS011;28218;53.342;-6.216;2022-07-12T09:51:56;3.35;;;2.00;;
42590;SDS011;28218;53.342;-6.216;2022-07-12T09:54:26;4.20;;;2.00;;
42590;SDS011;28218;53.342;-6.216;2022-07-12T09:56:58;8.98;;;2.30;;
42590;SDS011;28218;53.342;-6.216;2022-07-12T09:59:29;3.63;;;2.25;;
42590;SDS011;28218;53.342;-6.216;2022-07-12T10:02:03;4.60;;;2.00;;
42590;SDS011;28218;53.342;-6.216;2022-07-12T10:04:33;5.13;;;2.25;;
42590;SDS011;28218;53.342;-6.216;2022-07-12T10:07:02;5.90;;;1.90;;
42590;SDS011;28218;53.342;-6.216;2022-07-12T10:09:31;3.20;;;2.28;;
42590;SDS011;28218;53.342;-6.216;2022-07-12T10:12:00;2.20;;;2.00;;
42590;SDS011;28218;53.342;-6.216;2022-07-12T10:14:38;4.05;;;2.00;;
42590;SDS011;28218;53.342;-6.216;2022-07-12T10:19:39;4.47;;;1.98;;
42590;SDS011;28218;53.342;-6.216;2022-07-12T10:22:18;2.13;;;1.70;;
42590;SDS011;28218;53.342;-6.216;2022-07-12T10:24:47;4.47;;;1.90;;
42590;SDS011;28218;53.342;-6.216;2022-07-12T10:27:32;2.10;;;1.65;;
42590;SDS011;28218;53.342;-6.216;2022-07-12T10:30:15;3.95;;;1.90;;
42590;SDS011;28218;53.342;-6.216;2022-07-12T10:32:48;1.70;;;1.60;;
42590;SDS011;28218;53.342;-6.216;2022-07-12T10:40:47;3.97;;;1.73;;
42590;SDS011;28218;53.342;-6.216;2022-07-12T10:43:26;5.03;;;1.63;;
42590;SDS011;28218;53.342;-6.216;2022-07-12T10:46:16;4.60;;;1.70;;
42590;SDS011;28218;53.342;-6.216;2022-07-12T10:48:49;3.20;;;1.65;;
42590;SDS011;28218;53.342;-6.216;2022-07-12T10:51:18;3.25;;;1.75;;
42590;SDS011;28218;53.342;-6.216;2022-07-12T10:53:47;1.67;;;1.58;;
42590;SDS011;28218;53.342;-6.216;2022-07-12T10:56:18;1.73;;;1.63;;
42590;SDS011;28218;53.342;-6.216;2022-07-12T10:58:56;2.13;;;1.77;;
42590;SDS011;28218;53.342;-6.216;2022-07-12T11:01:28;5.03;;;1.75;;
42590;SDS011;28218;53.342;-6.216;2022-07-12T11:04:02;5.50;;;2.00;;
42590;SDS011;28218;53.342;-6.216;2022-07-12T11:06:34;2.25;;;2.03;;
42590;SDS011;28218;53.342;-6.216;2022-07-12T11:09:04;1.83;;;1.60;;
42590;SDS011;28218;53.342;-6.216;2022-07-12T11:11:35;6.53;;;1.75;;
42590;SDS011;28218;53.342;-6.216;2022-07-12T11:14:10;1.60;;;1.40;;
42590;SDS011;28218;53.342;-6.216;2022-07-12T11:16:44;3.88;;;1.77;;
42590;SDS011;28218;53.342;-6.216;2022-07-12T11:19:13;4.00;;;1.58;;
42590;SDS011;28218;53.342;-6.216;2022-07-12T11:21:42;4.13;;;1.55;;
42590;SDS011;28218;53.342;-6.216;2022-07-12T11:24:15;5.18;;;1.65;;
42590;SDS011;28218;53.342;-6.216;2022-07-12T11:26:44;2.30;;;1.40;;
42590;SDS011;28218;53.342;-6.216;2022-07-12T11:29:12;1.65;;;1.20;;
42590;SDS011;28218;53.342;-6.216;2022-07-12T11:31:41;4.43;;;1.48;;
42590;SDS011;28218;53.342;-6.216;2022-07-12T11:34:20;2.28;;;1.85;;
42590;SDS011;28218;53.342;-6.216;2022-07-12T11:36:50;5.50;;;1.70;;
42590;SDS011;28218;53.342;-6.216;2022-07-12T11:39:30;5.45;;;1.73;;
42590;SDS011;28218;53.342;-6.216;2022-07-12T11:41:59;2.95;;;1.52;;
42590;SDS011;28218;53.342;-6.216;2022-07-12T11:44:41;2.92;;;1.77;;
42590;SDS011;28218;53.342;-6.216;2022-07-12T11:47:10;4.32;;;1.48;;
42590;SDS011;28218;53.342;-6.216;2022-07-12T11:49:43;4.40;;;1.70;;
42590;SDS011;28218;53.342;-6.216;2022-07-12T11:52:14;3.83;;;1.50;;
42590;SDS011;28218;53.342;-6.216;2022-07-12T11:54:43;1.63;;;1.50;;
42590;SDS011;28218;53.342;-6.216;2022-07-12T11:57:12;3.33;;;1.67;;
42590;SDS011;28218;53.342;-6.216;2022-07-12T11:59:41;14.27;;;1.65;;
42590;SDS011;28218;53.342;-6.216;2022-07-12T12:02:10;6.53;;;1.80;;
42590;SDS011;28218;53.342;-6.216;2022-07-12T12:04:45;4.50;;;1.60;;
42590;SDS011;28218;53.342;-6.216;2022-07-12T12:07:14;3.47;;;1.48;;
42590;SDS011;28218;53.342;-6.216;2022-07-12T12:09:59;4.32;;;1.90;;
42590;SDS011;28218;53.342;-6.216;2022-07-12T12:12:34;3.05;;;1.83;;
42590;SDS011;28218;53.342;-6.216;2022-07-12T12:15:05;1.95;;;1.50;;
42590;SDS011;28218;53.342;-6.216;2022-07-12T12:17:35;2.50;;;1.60;;
42590;SDS011;28218;53.342;-6.216;2022-07-12T12:20:12;1.40;;;1.30;;
42590;SDS011;28218;53.342;-6.216;2022-07-12T12:22:43;5.47;;;1.67;;
42590;SDS011;28218;53.342;-6.216;2022-07-12T12:25:13;2.88;;;1.75;;
42590;SDS011;28218;53.342;-6.216;2022-07-12T12:27:45;2.38;;;1.65;;
42590;SDS011;28218;53.342;-6.216;2022-07-12T12:30:35;10.30;;;2.53;;
42590;SDS011;28218;53.342;-6.216;2022-07-12T12:33:33;2.40;;;1.67;;
42590;SDS011;28218;53.342;-6.216;2022-07-12T12:36:14;2.33;;;1.73;;
42590;SDS011;28218;53.342;-6.216;2022-07-12T12:38:43;9.13;;;1.73;;
42590;SDS011;28218;53.342;-6.216;2022-07-12T12:41:12;5.10;;;1.88;;
42590;SDS011;28218;53.342;-6.216;2022-07-12T12:43:41;2.97;;;1.83;;
42590;SDS011;28218;53.342;-6.216;2022-07-12T12:46:10;3.60;;;2.05;;
42590;SDS011;28218;53.342;-6.216;2022-07-12T12:48:45;2.08;;;1.45;;
42590;SDS011;28218;53.342;-6.216;2022-07-12T12:51:16;3.47;;;1.65;;
42590;SDS011;28218;53.342;-6.216;2022-07-12T12:53:54;3.15;;;1.58;;
42590;SDS011;28218;53.342;-6.216;2022-07-12T12:56:23;2.83;;;1.48;;
42590;SDS011;28218;53.342;-6.216;2022-07-12T12:58:51;4.03;;;1.83;;
42590;SDS011;28218;53.342;-6.216;2022-07-12T13:01:21;3.92;;;1.80;;
42590;SDS011;28218;53.342;-6.216;2022-07-12T13:03:50;2.88;;;1.88;;
42590;SDS011;28218;53.342;-6.216;2022-07-12T13:06:21;2.78;;;1.70;;
42590;SDS011;28218;53.342;-6.216;2022-07-12T13:08:50;4.22;;;1.52;;
42590;SDS011;28218;53.342;-6.216;2022-07-12T13:11:18;3.50;;;1.67;;
42590;SDS011;28218;53.342;-6.216;2022-07-12T13:13:49;7.33;;;1.77;;
42590;SDS011;28218;53.342;-6.216;2022-07-12T13:16:17;5.63;;;2.17;;
42590;SDS011;28218;53.342;-6.216;2022-07-12T13:18:45;5.45;;;2.22;;
42590;SDS011;28218;53.342;-6.216;2022-07-12T13:21:14;3.10;;;1.80;;
42590;SDS011;28218;53.342;-6.216;2022-07-12T13:23:45;3.83;;;1.70;;
42590;SDS011;28218;53.342;-6.216;2022-07-12T13:26:13;5.90;;;2.10;;
42590;SDS011;28218;53.342;-6.216;2022-07-12T13:28:41;8.75;;;1.83;;
42590;SDS011;28218;53.342;-6.216;2022-07-12T13:31:09;5.70;;;1.83;;
42590;SDS011;28218;53.342;-6.216;2022-07-12T13:33:38;6.72;;;2.17;;
42590;SDS011;28218;53.342;-6.216;2022-07-12T13:36:06;3.70;;;1.80;;
42590;SDS011;28218;53.342;-6.216;2022-07-12T13:38:34;5.22;;;1.58;;
42590;SDS011;28218;53.342;-6.216;2022-07-12T13:41:04;2.78;;;1.70;;
42590;SDS011;28218;53.342;-6.216;2022-07-12T13:43:33;5.35;;;1.85;;
42590;SDS011;28218;53.342;-6.216;2022-07-12T13:46:02;2.65;;;1.70;;
42590;SDS011;28218;53.342;-6.216;2022-07-12T13:48:31;2.28;;;1.38;;
42590;SDS011;28218;53.342;-6.216;2022-07-12T13:51:01;2.08;;;1.90;;
42590;SDS011;28218;53.342;-6.216;2022-07-12T13:53:49;2.05;;;1.63;;
42590;SDS011;28218;53.342;-6.216;2022-07-12T13:56:19;3.63;;;1.88;;
42590;SDS011;28218;53.342;-6.216;2022-07-12T13:58:48;1.60;;;1.50;;
42590;SDS011;28218;53.342;-6.216;2022-07-12T14:01:16;3.83;;;1.98;;
42590;SDS011;28218;53.342;-6.216;2022-07-12T14:03:44;6.07;;;1.90;;
42590;SDS011;28218;53.342;-6.216;2022-07-12T14:06:12;3.25;;;1.90;;
42590;SDS011;28218;53.342;-6.216;2022-07-12T14:08:41;4.75;;;2.03;;
42590;SDS011;28218;53.342;-6.216;2022-07-12T14:11:09;2.83;;;1.92;;
42590;SDS011;28218;53.342;-6.216;2022-07-12T14:13:38;3.90;;;1.70;;
42590;SDS011;28218;53.342;-6.216;2022-07-12T14:16:07;2.97;;;2.33;;
42590;SDS011;28218;53.342;-6.216;2022-07-12T14:18:35;4.75;;;1.85;;
42590;SDS011;28218;53.342;-6.216;2022-07-12T14:21:03;2.90;;;1.92;;
42590;SDS011;28218;53.342;-6.216;2022-07-12T14:23:32;3.20;;;1.48;;
42590;SDS011;28218;53.342;-6.216;2022-07-12T14:26:00;3.25;;;2.00;;
42590;SDS011;28218;53.342;-6.216;2022-07-12T14:28:28;2.22;;;1.55;;
42590;SDS011;28218;53.342;-6.216;2022-07-12T14:30:58;4.15;;;1.40;;
42590;SDS011;28218;53.342;-6.216;2022-07-12T14:33:26;2.70;;;1.27;;
42590;SDS011;28218;53.342;-6.216;2022-07-12T14:35:54;3.50;;;1.65;;
42590;SDS011;28218;53.342;-6.216;2022-07-12T14:38:23;9.35;;;1.23;;
42590;SDS011;28218;53.342;-6.216;2022-07-12T14:40:51;1.60;;;1.50;;
42590;SDS011;28218;53.342;-6.216;2022-07-12T14:43:20;2.00;;;1.33;;
42590;SDS011;28218;53.342;-6.216;2022-07-12T14:45:48;1.98;;;1.35;;
42590;SDS011;28218;53.342;-6.216;2022-07-12T14:48:18;2.92;;;1.38;;
42590;SDS011;28218;53.342;-6.216;2022-07-12T14:50:46;2.42;;;1.55;;
42590;SDS011;28218;53.342;-6.216;2022-07-12T14:53:19;3.65;;;1.50;;
42590;SDS011;28218;53.342;-6.216;2022-07-12T14:55:47;4.50;;;1.45;;
42590;SDS011;28218;53.342;-6.216;2022-07-12T14:58:16;5.28;;;2.03;;
42590;SDS011;28218;53.342;-6.216;2022-07-12T15:00:44;3.90;;;1.40;;
42590;SDS011;28218;53.342;-6.216;2022-07-12T15:03:12;1.92;;;1.42;;